Latest Coastal Weather Observations for Warruwi

IDD60701

Issued at 5:45 pm CST Saturday 19 April 2014 (issued every 10 minutes, with the page automatically refreshed every 10 minutes)

About coastal observations | Map of coastal stations | Coastal observations for NT | Marine services | Other Formats
Station Details ID: 014401 Name: WARRUWI AIRPORT Lat: -11.65 Lon: 133.38 Height: 19.2 m
Data from the previous 72 hours. | See also: Recent months at Warruwi
Date/Time
CST
Temp

°C
Wind Pressure Rain
since 9am
mm
Weather Cloud Vis
km
Sea
Height
m
Swell
Dir
 
Speed
knots
Gust
knots
hPa Trend Height
m
Period
s
Dir
19/05:30pm 24.5 SE 13 19 1009.9 - 11.4 - - - - - - -
19/05:02pm 24.7 ESE 18 29 1009.7 - 9.6 - - - - - - -
19/05:00pm 24.7 ESE 19 29 1009.7 - 9.4 - - - - - - -
19/04:50pm 26.2 ESE 21 25 1009.5 - 8.2 - - - - - - -
19/04:30pm 27.9 E 9 15 1008.9 - 8.2 - - - - - - -
19/04:00pm 27.7 E 8 14 1008.8 - 8.2 - - - - - - -
19/03:30pm 27.4 ENE 8 14 1008.6 - 8.2 - - - - - - -
19/03:00pm 27.5 E 9 16 1008.7 - 8.2 - - - - - - -
19/02:30pm 27.2 ENE 8 14 1008.9 - 8.2 - - - - - - -
19/02:00pm 26.6 ENE 9 16 1009.5 - 8.2 - - - - - - -
19/01:30pm 25.2 ENE 7 14 1009.6 - 8.0 - - - - - - -
19/01:00pm 29.2 ENE 8 13 1009.9 - 0.0 - - - - - - -
19/12:30pm 29.8 E 11 14 1010.0 - 0.0 - - - - - - -
19/12:00pm 29.3 E 11 16 1010.5 - 0.0 - - - - - - -
19/11:30am 30.1 E 12 16 1011.0 - 0.0 - - - - - - -
19/11:00am 29.4 E 12 15 1011.7 - 0.0 - - - - - - -
19/10:30am 28.9 E 10 16 1011.8 - 0.0 - - - - - - -
19/10:00am 28.8 E 10 14 1011.8 - 0.0 - - - - - - -
19/09:30am 27.8 ESE 10 14 1011.5 - 0.0 - - - - - - -
19/09:00am 27.3 ESE 10 14 1011.6 - 18.0 - - - - - - -
19/08:30am 27.3 ESE 9 13 1011.4 - 18.0 - - - - - - -
19/08:00am 26.8 ESE 8 11 1011.4 - 18.0 - - - - - - -
19/07:30am 25.7 SE 7 10 1011.1 - 18.0 - - - - - - -
19/07:00am 25.5 ESE 6 9 1010.9 - 18.0 - - - - - - -
19/06:30am 25.4 ESE 7 10 1010.6 - 18.0 - - - - - - -
19/06:00am 25.2 ESE 8 11 1010.4 - 18.0 - - - - - - -
19/05:30am 25.3 SE 8 13 1010.4 - 18.0 - - - - - - -
19/05:00am 25.2 SE 8 12 1010.7 - 18.0 - - - - - - -
19/04:30am 25.2 ESE 9 12 1010.4 - 18.0 - - - - - - -
19/04:00am 25.1 ESE 10 14 1010.6 - 18.0 - - - - - - -
19/03:30am 24.9 ESE 8 12 1010.4 - 18.0 - - - - - - -
19/03:00am 25.0 ESE 8 12 1010.7 - 18.0 - - - - - - -
19/02:30am 25.3 ESE 11 15 1010.6 - 18.0 - - - - - - -
19/02:00am 25.4 ESE 10 15 1010.8 - 18.0 - - - - - - -
19/01:30am 25.1 ESE 7 11 1010.7 - 18.0 - - - - - - -
19/01:00am 25.1 SE 9 12 1011.1 - 18.0 - - - - - - -
19/12:30am 25.0 SE 8 12 1011.3 - 18.0 - - - - - - -
19/12:00am 25.1 SE 8 12 1011.2 - 18.0 - - - - - - -
 
Date/Time
CST
Temp

°C
Wind Pressure Rain
since 9am
mm
Weather Cloud Vis
km
Sea
Height
m
Swell
Dir
 
Speed
knots
Gust
knots
hPa Trend Height
m
Period
s
Dir
18/11:30pm 25.3 SE 9 12 1011.5 - 18.0 - - - - - - -
18/11:00pm 25.3 SE 9 13 1011.9 - 18.0 - - - - - - -
18/10:30pm 25.3 SE 9 12 1011.8 - 18.0 - - - - - - -
18/10:00pm 25.5 SE 10 15 1012.3 - 18.0 - - - - - - -
18/09:30pm 25.3 SE 9 14 1012.1 - 18.0 - - - - - - -
18/09:00pm 25.8 ESE 11 17 1012.2 - 18.0 Recent precip. - - - - - -
18/08:30pm 25.3 ESE 11 16 1012.0 - 17.8 - - - - - - -
18/08:00pm 24.5 E 14 19 1012.0 - 17.0 - - - - - - -
18/07:30pm 25.2 ESE 16 22 1011.6 - 16.2 - - - - - - -
18/07:00pm 25.8 ESE 14 18 1011.5 - 15.8 - - - - - - -
18/06:30pm 25.9 ESE 12 17 1011.1 - 15.8 - - - - - - -
18/06:00pm 26.2 ESE 13 19 1010.5 - 15.8 - - - - - - -
18/05:30pm 26.7 ESE 11 15 1010.1 - 15.8 - - - - - - -
18/05:00pm 26.2 E 9 13 1010.2 - 15.8 - - - - - - -
18/04:30pm 25.8 E 8 11 1009.8 - 15.8 - - - - - - -
18/04:00pm 25.4 E 7 12 1009.8 - 15.6 - - - - - - -
18/03:30pm 25.0 ENE 6 10 1009.4 - 15.4 - - - - - - -
18/03:00pm 24.8 ENE 6 12 1009.9 - 14.4 Rain - - - - - -
18/02:30pm 25.4 ENE 8 14 1010.0 - 1.4 - - - - - - -
18/02:00pm 27.4 NE 4 6 1010.1 - 0.2 - - - - - - -
18/01:30pm 26.7 NE 3 5 1010.2 - 0.2 - - - - - - -
18/01:00pm 26.6 NE 4 8 1010.8 - 0.2 - - - - - - -
18/12:30pm 26.8 NE 6 11 1011.1 - 0.0 - - - - - - -
18/12:00pm 28.6 E 11 15 1011.3 - 0.0 - - - - - - -
18/11:30am 28.7 E 9 12 1011.5 - 0.0 - - - - - - -
18/11:00am 28.8 E 8 11 1012.3 - 0.0 - - - - - - -
18/10:30am 28.7 ESE 8 11 1011.8 - 0.0 - - - - - - -
18/10:00am 28.0 SE 8 10 1012.0 - 0.0 - - - - - - -
18/09:30am 27.3 SE 8 11 1011.7 - 0.0 - - - - - - -
18/09:00am 27.3 ESE 10 15 1011.5 - 0.0 - - - - - - -
18/08:30am 27.3 SE 9 14 1011.5 - 0.0 - - - - - - -
18/08:00am 27.0 ESE 9 13 1011.5 - 0.0 - - - - - - -
18/07:30am 26.8 ESE 9 13 1010.9 - 0.0 - - - - - - -
18/07:00am 26.7 SE 8 11 1010.9 - 0.0 - - - - - - -
18/06:30am 26.6 SE 6 10 1010.3 - 0.0 - - - - - - -
18/06:00am 26.6 SE 8 11 1010.1 - 0.0 - - - - - - -
18/05:30am 26.5 SE 8 12 1009.7 - 0.0 - - - - - - -
18/05:00am 26.5 SE 8 11 1010.0 - 0.0 - - - - - - -
18/04:30am 26.5 SE 9 14 1009.6 - 0.0 - - - - - - -
18/04:00am 26.5 SE 9 13 1010.0 - 0.0 - - - - - - -
18/03:30am 26.6 SSE 8 13 1009.8 - 0.0 - - - - - - -
18/03:00am 26.6 SE 7 12 1010.0 - 0.0 - - - - - - -
18/02:30am 26.7 SE 6 10 1010.3 - 0.0 - - - - - - -
18/02:00am 26.7 SE 7 12 1010.7 - 0.0 - - - - - - -
18/01:30am 26.8 SE 8 11 1010.7 - 0.0 - - - - - - -
18/01:00am 26.9 SSE 5 9 1011.4 - 0.0 - - - - - - -
18/12:30am 27.0 SSE 7 11 1011.5 - 0.0 - - - - - - -
18/12:00am 27.1 SE 7 12 1011.9 - 0.0 - - - - - - -
 
Date/Time
CST
Temp

°C
Wind Pressure Rain
since 9am
mm
Weather Cloud Vis
km
Sea
Height
m
Swell
Dir
 
Speed
knots
Gust
knots
hPa Trend Height
m
Period
s
Dir
17/11:30pm 27.1 SE 8 12 1011.9 - 0.0 - - - - - - -
17/11:00pm 27.0 SE 8 11 1012.0 - 0.0 - - - - - - -
17/10:30pm 27.2 SE 8 11 1011.7 - 0.0 - - - - - - -
17/10:00pm 27.6 SSE 4 7 1011.6 - 0.0 - - - - - - -
17/09:30pm 27.9 SSE 5 8 1011.0 - 0.0 - - - - - - -
17/09:00pm 28.3 SE 8 10 1011.1 - 0.0 - - - - - - -
17/08:30pm 29.0 ESE 5 8 1010.9 - 0.0 - - - - - - -
17/08:00pm 28.7 SE 3 4 1010.8 - 0.0 - - - - - - -
17/07:30pm 28.6 ENE 2 4 1010.0 - 0.0 - - - - - - -
17/07:00pm 28.5 ENE 2 3 1009.8 - 0.0 - - - - - - -
17/06:30pm 29.0 NE 2 3 1009.5 - 0.0 - - - - - - -
17/06:00pm 29.5 NE 3 6 1009.0 - 0.0 - - - - - - -
17/05:30pm 30.1 NE 4 6 1008.9 - 0.0 - - - - - - -
17/05:00pm 31.0 NE 2 4 1008.8 - 0.0 - - - - - - -
17/04:30pm 31.7 NE 3 5 1008.6 - 0.0 - - - - - - -
17/04:00pm 31.5 NE 4 6 1008.4 - 0.0 - - - - - - -
17/03:30pm 31.7 ENE 5 8 1008.2 - 0.0 - - - - - - -
17/03:00pm 32.4 E 7 9 1008.6 - 0.0 - - - - - - -
17/02:30pm 32.2 ENE 5 9 1008.9 - 0.0 - - - - - - -
17/02:00pm 31.8 E 6 9 1009.4 - 0.0 - - - - - - -
17/01:30pm 31.9 E 6 9 1009.4 - 0.0 - - - - - - -
17/01:00pm 31.5 E 4 8 1009.9 - 0.0 - - - - - - -
17/12:30pm 31.1 E 4 7 1010.0 - 0.0 - - - - - - -
17/12:00pm 31.0 E 5 8 1010.7 - 0.0 - - - - - - -
17/11:30am 31.1 ESE 7 10 1011.1 - 0.0 - - - - - - -
17/11:00am 30.4 ESE 7 10 1011.6 - 0.0 - - - - - - -
17/10:30am 30.4 ESE 8 12 1011.7 - 0.0 - - - - - - -
17/10:00am 29.9 SE 9 12 1012.2 - 0.0 - - - - - - -
17/09:30am 29.8 SE 8 11 1011.8 - 0.0 - - - - - - -
17/09:00am 29.3 SE 8 12 1011.6 - 0.0 - - - - - - -
17/08:30am 29.1 SE 9 11 1011.3 - 0.0 - - - - - - -
17/08:00am 28.8 SE 5 7 1011.4 - 0.0 - - - - - - -
17/07:30am 27.6 SSE 3 4 1010.8 - 0.0 - - - - - - -
17/07:00am 26.6 SSE 2 4 1010.8 - 0.0 - - - - - - -
17/06:30am 26.1 S 2 2 1010.2 - 0.0 - - - - - - -
17/06:00am 26.6 SSE 3 4 1009.9 - 0.0 - - - - - - -
17/05:30am 26.4 S 2 3 1009.6 - 0.0 - - - - - - -
17/05:00am 26.7 S 1 2 1009.7 - 0.0 - - - - - - -
17/04:30am 27.2 SSE 2 4 1009.3 - 0.0 - - - - - - -
17/04:00am 27.2 S 2 4 1009.4 - 0.0 - - - - - - -
17/03:30am 27.0 S 2 3 1009.2 - 0.0 - - - - - - -
17/03:00am 26.6 S 2 3 1009.3 - 0.0 - - - - - - -
17/02:30am 26.1 CALM 0 0 1009.5 - 0.0 - - - - - - -
17/02:00am 26.0 CALM 0 0 1010.0 - 0.0 - - - - - - -
17/01:30am 26.3 CALM 0 0 1010.1 - 0.0 - - - - - - -
17/01:00am 26.2 CALM 0 0 1010.6 - 0.0 - - - - - - -
17/12:30am 26.2 CALM 0 0 1010.6 - 0.0 - - - - - - -
17/12:00am 26.3 CALM 0 1 1010.7 - 0.0 - - - - - - -
 
Date/Time
CST
Temp

°C
Wind Pressure Rain
since 9am
mm
Weather Cloud Vis
km
Sea
Height
m
Swell
Dir
 
Speed
knots
Gust
knots
hPa Trend Height
m
Period
s
Dir
16/11:30pm 26.4 CALM 0 0 1010.8 - 0.0 - - - - - - -
16/11:00pm 26.6 CALM 0 0 1010.8 - 0.0 - - - - - - -
16/10:30pm 26.7 CALM 0 0 1010.5 - 0.0 - - - - - - -
16/10:00pm 26.6 CALM 0 0 1010.8 - 0.0 - - - - - - -
16/09:30pm 26.8 CALM 0 0 1010.5 - 0.0 - - - - - - -
16/09:00pm 27.0 NNE 1 2 1010.1 - 0.0 - - - - - - -
16/08:30pm 27.2 NE 1 2 1009.7 - 0.0 - - - - - - -
16/08:00pm 27.5 NE 2 2 1009.7 - 0.0 - - - - - - -
16/07:30pm 27.7 NNE 1 2 1009.1 - 0.0 - - - - - - -
16/07:00pm 28.3 CALM 0 0 1009.0 - 0.0 - - - - - - -
16/06:30pm 29.2 NE 2 3 1008.6 - 0.0 - - - - - - -
16/06:00pm 30.1 NE 2 5 1008.5 - 0.0 - - - - - - -

Other Formats:

Comma delimited format used in spreadsheet applications
http://www.bom.gov.au/fwo/IDD60701/IDD60701.94139.axf

JavaScript Object Notation format (JSON) in row-major order
http://www.bom.gov.au/fwo/IDD60701/IDD60701.94139.json